createdAt,value
2022-11-24T00:01:15.352Z,8.46
2022-11-24T00:03:43.988Z,8.46
2022-11-24T00:06:13.529Z,8.49
2022-11-24T00:08:44.491Z,8.52
2022-11-24T00:11:14.216Z,8.52
2022-11-24T00:13:42.475Z,8.54
2022-11-24T00:16:13.064Z,8.54
2022-11-24T00:18:42.117Z,8.56
2022-11-24T00:21:10.299Z,8.60
2022-11-24T00:23:38.711Z,8.63
2022-11-24T00:26:08.470Z,8.65
2022-11-24T00:28:37.570Z,8.64
2022-11-24T00:31:08.685Z,8.61
2022-11-24T00:33:40.788Z,8.61
2022-11-24T00:36:09.062Z,8.59
2022-11-24T00:38:37.188Z,8.59
2022-11-24T00:41:05.137Z,8.57
2022-11-24T00:43:33.681Z,8.58
2022-11-24T00:46:01.840Z,8.56
2022-11-24T00:48:30.826Z,8.55
2022-11-24T00:51:02.256Z,8.53
2022-11-24T00:53:30.913Z,8.55
2022-11-24T00:55:58.782Z,8.55
2022-11-24T00:58:27.474Z,8.54
2022-11-24T01:00:56.161Z,8.54
2022-11-24T01:03:24.333Z,8.51
2022-11-24T01:05:52.193Z,8.50
2022-11-24T01:08:21.664Z,8.49
2022-11-24T01:10:49.626Z,8.48
2022-11-24T01:13:17.760Z,8.46
2022-11-24T01:15:45.642Z,8.47
2022-11-24T01:18:13.765Z,8.47
2022-11-24T01:20:41.665Z,8.45
2022-11-24T01:23:10.139Z,8.49
2022-11-24T01:25:41.662Z,8.51
2022-11-24T01:28:09.767Z,8.50
2022-11-24T01:30:37.751Z,8.50
2022-11-24T01:33:06.035Z,8.47
2022-11-24T01:35:33.963Z,8.49
2022-11-24T01:38:02.109Z,8.50
2022-11-24T01:40:29.985Z,8.46
2022-11-24T01:42:59.506Z,8.44
2022-11-24T01:45:36.603Z,8.46
2022-11-24T01:48:06.907Z,8.42
2022-11-24T01:50:36.821Z,8.43
2022-11-24T01:53:05.743Z,8.41
2022-11-24T01:55:37.252Z,8.40
2022-11-24T01:58:09.322Z,8.41
2022-11-24T02:00:38.128Z,8.41
2022-11-24T02:03:06.681Z,8.45
2022-11-24T02:05:39.178Z,8.52
2022-11-24T02:08:10.616Z,8.59
2022-11-24T02:10:38.960Z,8.63
2022-11-24T02:13:08.518Z,8.66
2022-11-24T02:15:36.860Z,8.70
2022-11-24T02:18:05.681Z,8.75
2022-11-24T02:20:34.047Z,8.76
2022-11-24T02:23:04.902Z,8.74
2022-11-24T02:25:37.143Z,8.73
2022-11-24T02:28:08.875Z,8.69
2022-11-24T02:30:37.087Z,8.65
2022-11-24T02:33:05.329Z,8.59
2022-11-24T02:35:33.404Z,8.56
2022-11-24T02:38:01.701Z,8.53
2022-11-24T02:40:31.001Z,8.49
2022-11-24T02:43:02.457Z,8.47
2022-11-24T02:45:32.152Z,8.46
2022-11-24T02:48:00.493Z,8.45
2022-11-24T02:50:28.422Z,8.45
2022-11-24T02:52:56.592Z,8.43
2022-11-24T02:55:24.725Z,8.39
2022-11-24T02:57:53.008Z,8.35
2022-11-24T03:00:21.389Z,8.33
2022-11-24T03:02:51.505Z,8.34
2022-11-24T03:05:20.233Z,8.35
2022-11-24T03:07:48.441Z,8.37
2022-11-24T03:10:16.929Z,8.39
2022-11-24T03:12:45.058Z,8.40
2022-11-24T03:15:12.999Z,8.41
2022-11-24T03:17:41.330Z,8.41
2022-11-24T03:20:12.060Z,8.39
2022-11-24T03:22:40.216Z,8.38
2022-11-24T03:25:08.799Z,8.36
2022-11-24T03:27:37.051Z,8.35
2022-11-24T03:30:05.614Z,8.40
2022-11-24T03:32:33.918Z,8.44
2022-11-24T03:35:01.924Z,8.49
2022-11-24T03:37:31.538Z,8.53
2022-11-24T03:39:59.515Z,8.57
2022-11-24T03:42:27.743Z,8.59
2022-11-24T03:44:55.677Z,8.61
2022-11-24T03:47:23.798Z,8.64
2022-11-24T03:49:51.730Z,8.64
2022-11-24T03:52:19.869Z,8.61
2022-11-24T03:54:49.106Z,8.55
2022-11-24T03:57:17.229Z,8.48
2022-11-24T03:59:45.137Z,8.44
2022-11-24T04:02:13.347Z,8.42
2022-11-24T04:04:44.671Z,8.40
2022-11-24T04:07:15.254Z,8.42
2022-11-24T04:09:43.212Z,8.43
2022-11-24T04:12:38.496Z,8.46
2022-11-24T04:15:07.253Z,8.48
2022-11-24T04:17:35.601Z,8.49
2022-11-24T04:20:04.085Z,8.53
2022-11-24T04:22:32.393Z,8.54
2022-11-24T04:25:00.342Z,8.56
2022-11-24T04:27:30.271Z,8.56
2022-11-24T04:29:58.226Z,8.56
2022-11-24T04:32:26.518Z,8.59
2022-11-24T04:34:54.402Z,8.61
2022-11-24T04:37:22.555Z,8.66
2022-11-24T04:39:50.439Z,8.71
2022-11-24T04:42:18.677Z,8.70
2022-11-24T04:44:47.968Z,8.71
2022-11-24T04:47:17.104Z,8.74
2022-11-24T04:49:45.015Z,8.77
2022-11-24T04:52:13.211Z,8.73
2022-11-24T04:54:41.120Z,8.73
2022-11-24T04:57:10.648Z,8.74
2022-11-24T04:59:38.513Z,8.79
2022-11-24T05:02:08.087Z,8.79
2022-11-24T05:04:36.577Z,8.81
2022-11-24T05:07:05.330Z,8.83
2022-11-24T05:09:58.067Z,8.83
2022-11-24T05:12:21.580Z,8.85
2022-11-24T05:14:49.515Z,8.87
2022-11-24T05:17:19.561Z,8.89
2022-11-24T05:19:47.482Z,8.90
2022-11-24T05:22:15.671Z,8.88
2022-11-24T05:24:43.598Z,8.86
2022-11-24T05:27:12.350Z,8.87
2022-11-24T05:29:40.299Z,8.91
2022-11-24T05:32:08.559Z,8.92
2022-11-24T05:34:38.023Z,8.97
2022-11-24T05:37:06.507Z,9.01
2022-11-24T05:39:34.891Z,9.03
2022-11-24T05:42:24.502Z,9.06
2022-11-24T05:44:52.607Z,9.05
2022-11-24T05:47:20.925Z,9.03
2022-11-24T05:49:50.258Z,9.02
2022-11-24T05:52:18.407Z,9.01
2022-11-24T05:54:46.302Z,8.98
2022-11-24T05:57:14.532Z,8.97
2022-11-24T05:59:42.436Z,8.96
2022-11-24T06:02:10.869Z,8.97
2022-11-24T06:04:39.138Z,8.97
2022-11-24T06:07:10.858Z,8.96
2022-11-24T06:09:39.136Z,9.02
2022-11-24T06:12:08.142Z,9.01
2022-11-24T06:14:36.428Z,8.98
2022-11-24T06:17:06.643Z,8.96
2022-11-24T06:19:38.645Z,8.95
2022-11-24T06:22:11.096Z,8.91
2022-11-24T06:24:39.125Z,8.92
2022-11-24T06:27:07.631Z,8.90
2022-11-24T06:29:35.522Z,8.89
2022-11-24T06:32:03.834Z,8.86
2022-11-24T06:34:32.244Z,8.80
2022-11-24T06:37:00.927Z,8.84
2022-11-24T06:39:30.246Z,8.82
2022-11-24T06:41:58.563Z,8.79
2022-11-24T06:44:26.533Z,8.77
2022-11-24T06:46:54.953Z,8.76
2022-11-24T06:49:22.866Z,8.70
2022-11-24T06:51:51.034Z,8.69
2022-11-24T06:54:20.993Z,8.70
2022-11-24T06:56:50.770Z,8.66
2022-11-24T06:59:20.915Z,8.66
2022-11-24T07:01:49.171Z,8.64
2022-11-24T07:04:17.388Z,8.63
2022-11-24T07:06:45.605Z,8.64
2022-11-24T07:09:14.626Z,8.61
2022-11-24T07:11:43.509Z,8.62
2022-11-24T07:14:12.813Z,8.61
2022-11-24T07:16:41.394Z,8.62
2022-11-24T07:19:10.063Z,8.63
2022-11-24T07:21:38.268Z,8.63
2022-11-24T07:24:06.968Z,8.65
2022-11-24T07:26:37.159Z,8.70
2022-11-24T07:29:05.903Z,8.71
2022-11-24T07:31:35.430Z,8.71
2022-11-24T07:34:03.405Z,8.72
2022-11-24T07:36:32.248Z,8.71
2022-11-24T07:39:00.303Z,8.70
2022-11-24T07:41:28.490Z,8.67
2022-11-24T07:43:56.619Z,8.70
2022-11-24T07:46:24.949Z,8.71
2022-11-24T07:48:54.311Z,8.72
2022-11-24T07:51:22.599Z,8.72
2022-11-24T07:53:50.503Z,8.75
2022-11-24T07:56:18.701Z,8.74
2022-11-24T07:58:51.358Z,8.76
2022-11-24T08:01:21.213Z,8.78
2022-11-24T08:03:49.221Z,8.78
2022-11-24T08:06:26.125Z,8.83
2022-11-24T08:08:55.684Z,8.84
2022-11-24T08:11:24.076Z,8.84
2022-11-24T08:13:52.077Z,8.86
2022-11-24T08:16:20.936Z,8.84
2022-11-24T08:18:50.905Z,8.83
2022-11-24T08:21:20.969Z,8.85
2022-11-24T08:23:48.919Z,8.87
2022-11-24T08:26:19.197Z,8.91
2022-11-24T08:28:48.022Z,8.93
2022-11-24T08:31:19.504Z,8.95
2022-11-24T08:33:47.877Z,8.94
2022-11-24T08:36:18.475Z,8.96
2022-11-24T08:38:48.857Z,8.96
2022-11-24T08:41:18.229Z,9.00
2022-11-24T08:43:46.134Z,9.00
2022-11-24T08:46:17.081Z,9.02
2022-11-24T08:48:47.167Z,9.03
2022-11-24T08:51:18.799Z,9.06
2022-11-24T08:53:48.414Z,9.10
2022-11-24T08:56:16.567Z,9.15
2022-11-24T08:58:44.741Z,9.15
2022-11-24T09:01:14.528Z,9.18
2022-11-24T09:03:49.765Z,9.14
2022-11-24T09:06:19.743Z,9.12
2022-11-24T09:08:49.498Z,9.13
2022-11-24T09:11:17.920Z,9.13
2022-11-24T09:13:46.187Z,9.17
2022-11-24T09:16:16.496Z,9.26
2022-11-24T09:18:44.901Z,9.38
2022-11-24T09:21:14.749Z,9.45
2022-11-24T09:23:43.599Z,9.50
2022-11-24T09:26:14.446Z,9.53
2022-11-24T09:28:43.042Z,9.55
2022-11-24T09:31:12.745Z,9.62
2022-11-24T09:33:41.990Z,9.69
2022-11-24T09:36:10.684Z,9.75
2022-11-24T09:38:38.703Z,9.78
2022-11-24T09:41:25.257Z,9.79
2022-11-24T09:43:58.291Z,9.82
2022-11-24T09:46:31.464Z,9.89
2022-11-24T09:48:59.627Z,9.95
2022-11-24T09:51:29.478Z,10.00
2022-11-24T09:54:01.385Z,10.00
2022-11-24T09:56:34.390Z,10.02
2022-11-24T09:59:04.217Z,10.11
2022-11-24T10:01:34.356Z,10.12
2022-11-24T10:04:06.228Z,10.15
2022-11-24T10:06:40.485Z,10.17
2022-11-24T10:09:37.542Z,10.15
2022-11-24T10:12:17.372Z,10.13
2022-11-24T10:15:25.447Z,10.12
2022-11-24T10:18:16.951Z,10.09
2022-11-24T10:20:53.520Z,10.06
2022-11-24T10:23:33.530Z,10.03
2022-11-24T10:26:09.502Z,10.01
2022-11-24T10:28:42.971Z,10.05
2022-11-24T10:31:19.698Z,10.15
2022-11-24T10:33:48.865Z,10.27
2022-11-24T10:36:21.793Z,10.41
2022-11-24T10:38:55.206Z,10.54
2022-11-24T10:41:25.783Z,10.63
2022-11-24T10:43:58.616Z,10.71
2022-11-24T10:46:28.006Z,10.82
2022-11-24T10:48:59.341Z,10.91
2022-11-24T10:51:48.759Z,10.99
2022-11-24T10:54:18.584Z,11.00
2022-11-24T10:56:48.280Z,11.07
2022-11-24T10:59:31.969Z,11.14
2022-11-24T11:02:00.467Z,11.18
2022-11-24T11:04:30.221Z,11.28
2022-11-24T11:07:18.439Z,11.35
2022-11-24T11:09:47.644Z,11.44
2022-11-24T11:12:42.589Z,11.60
2022-11-24T11:15:25.273Z,11.77
2022-11-24T11:17:57.721Z,12.11
2022-11-24T11:20:29.842Z,13.02
2022-11-24T11:22:59.093Z,14.19
2022-11-24T11:25:31.666Z,15.02
2022-11-24T11:28:24.656Z,15.55
2022-11-24T11:31:19.710Z,15.55
2022-11-24T11:34:03.601Z,16.19
2022-11-24T11:36:33.730Z,16.64
2022-11-24T11:39:01.721Z,17.10
2022-11-24T11:41:34.712Z,17.40
2022-11-24T11:44:21.278Z,18.14
2022-11-24T11:46:50.843Z,18.75
2022-11-24T11:49:18.774Z,18.97
2022-11-24T11:52:09.514Z,19.70
2022-11-24T11:54:55.694Z,20.21
2022-11-24T11:57:31.469Z,20.63
2022-11-24T12:00:06.287Z,20.76
2022-11-24T12:03:02.070Z,21.04
2022-11-24T12:05:45.114Z,20.06
2022-11-24T12:08:24.673Z,20.61
2022-11-24T12:10:59.565Z,20.87
2022-11-24T12:13:40.916Z,20.18
2022-11-24T12:16:15.533Z,20.78
2022-11-24T12:18:58.625Z,20.78
2022-11-24T12:21:30.905Z,20.90
2022-11-24T12:24:07.608Z,21.01
2022-11-24T12:26:40.575Z,20.96
2022-11-24T12:29:26.302Z,21.30
2022-11-24T12:31:58.935Z,22.17
2022-11-24T12:34:39.564Z,20.97
2022-11-24T12:37:19.690Z,19.06
2022-11-24T12:39:53.735Z,19.14
2022-11-24T12:42:30.361Z,18.12
2022-11-24T12:45:13.067Z,17.22
2022-11-24T12:47:50.734Z,16.37
2022-11-24T12:50:21.805Z,15.78
2022-11-24T12:52:58.443Z,14.84
2022-11-24T12:55:28.124Z,14.46
2022-11-24T12:57:59.946Z,14.35
2022-11-24T13:00:32.315Z,14.06
2022-11-24T13:03:20.628Z,14.25
2022-11-24T13:05:54.499Z,15.50
2022-11-24T13:08:23.292Z,17.25
2022-11-24T13:10:56.540Z,18.55
2022-11-24T13:13:29.085Z,19.54
2022-11-24T13:16:36.248Z,20.43
2022-11-24T13:19:10.702Z,21.04
2022-11-24T13:22:02.508Z,20.94
2022-11-24T13:24:33.670Z,20.20
2022-11-24T13:27:40.962Z,19.48
2022-11-24T13:30:50.941Z,17.75
2022-11-24T13:33:34.507Z,16.45
2022-11-24T13:36:36.041Z,15.91
2022-11-24T13:39:20.165Z,15.29
2022-11-24T13:42:09.353Z,14.86
2022-11-24T13:44:47.991Z,14.62
2022-11-24T13:47:42.886Z,14.09
2022-11-24T13:50:23.233Z,13.82
2022-11-24T13:52:57.946Z,13.64
2022-11-24T13:55:30.979Z,14.64
2022-11-24T13:58:20.278Z,14.95
2022-11-24T14:01:04.724Z,14.94
2022-11-24T14:03:35.502Z,14.75
2022-11-24T14:06:04.565Z,14.63
2022-11-24T14:08:34.191Z,15.04
2022-11-24T14:11:05.227Z,15.87
2022-11-24T14:13:34.350Z,16.79
2022-11-24T14:16:05.088Z,17.19
2022-11-24T14:18:33.726Z,17.87
2022-11-24T14:21:03.629Z,18.51
2022-11-24T14:23:32.406Z,18.48
2022-11-24T14:26:00.578Z,17.75
2022-11-24T14:28:30.280Z,16.91
2022-11-24T14:31:08.875Z,15.97
2022-11-24T14:33:37.063Z,16.24
2022-11-24T14:36:06.201Z,16.52
2022-11-24T14:38:34.850Z,16.85
2022-11-24T14:41:16.402Z,16.42
2022-11-24T14:43:45.706Z,15.97
2022-11-24T14:46:19.885Z,15.34
2022-11-24T14:48:49.481Z,14.92
2022-11-24T14:51:22.369Z,14.64
2022-11-24T14:53:52.533Z,14.36
2022-11-24T14:56:26.360Z,14.06
2022-11-24T14:58:56.914Z,13.98
2022-11-24T15:01:32.505Z,13.92
2022-11-24T15:04:32.826Z,13.76
2022-11-24T15:07:15.319Z,13.57
2022-11-24T15:09:51.443Z,13.44
2022-11-24T15:12:28.525Z,13.28
2022-11-24T15:14:59.197Z,13.11
2022-11-24T15:17:29.216Z,13.01
2022-11-24T15:19:59.755Z,12.91
2022-11-24T15:22:35.436Z,12.72
2022-11-24T15:25:03.976Z,12.66
2022-11-24T15:27:32.109Z,12.52
2022-11-24T15:30:01.318Z,12.46
2022-11-24T15:32:29.637Z,12.42
2022-11-24T15:34:57.539Z,12.35
2022-11-24T15:37:28.860Z,12.29
2022-11-24T15:40:00.737Z,12.18
2022-11-24T15:42:28.909Z,11.98
2022-11-24T15:44:56.785Z,11.85
2022-11-24T15:47:26.283Z,11.78
2022-11-24T15:49:54.185Z,11.70
2022-11-24T15:52:22.430Z,11.60
2022-11-24T15:54:53.662Z,11.55
2022-11-24T15:57:21.884Z,11.46
2022-11-24T15:59:50.032Z,11.39
2022-11-24T16:02:19.356Z,11.35
2022-11-24T16:04:48.672Z,11.35
2022-11-24T16:07:16.906Z,11.33
2022-11-24T16:09:44.967Z,11.33
2022-11-24T16:12:13.145Z,11.30
2022-11-24T16:14:41.128Z,11.24
2022-11-24T16:17:09.353Z,11.18
2022-11-24T16:19:41.656Z,11.13
2022-11-24T16:22:11.589Z,11.08
2022-11-24T16:24:39.530Z,11.00
2022-11-24T16:27:07.728Z,10.88
2022-11-24T16:29:38.535Z,10.78
2022-11-24T16:32:07.299Z,10.76
2022-11-24T16:34:35.436Z,10.73
2022-11-24T16:37:04.124Z,10.70
2022-11-24T16:39:33.732Z,10.68
2022-11-24T16:42:01.949Z,10.66
2022-11-24T16:44:30.063Z,10.63
2022-11-24T16:46:58.326Z,10.58
2022-11-24T16:49:26.282Z,10.50
2022-11-24T16:51:54.681Z,10.47
2022-11-24T16:54:22.722Z,10.45
2022-11-24T16:56:52.312Z,10.43
2022-11-24T16:59:20.186Z,10.44
2022-11-24T17:01:50.501Z,10.42
2022-11-24T17:04:18.856Z,10.39
2022-11-24T17:06:47.217Z,10.34
2022-11-24T17:09:15.213Z,10.31
2022-11-24T17:11:43.408Z,10.25
2022-11-24T17:14:12.936Z,10.21
2022-11-24T17:16:41.170Z,10.16
2022-11-24T17:19:09.319Z,10.15
2022-11-24T17:21:37.659Z,10.13
2022-11-24T17:24:06.396Z,10.11
2022-11-24T17:26:35.173Z,10.07
2022-11-24T17:29:03.283Z,10.07
2022-11-24T17:31:35.723Z,10.05
2022-11-24T17:34:05.577Z,10.02
2022-11-24T17:36:34.876Z,10.00
2022-11-24T17:39:04.943Z,9.96
2022-11-24T17:41:33.894Z,9.93
2022-11-24T17:44:01.849Z,9.90
2022-11-24T17:46:31.615Z,9.87
2022-11-24T17:49:01.028Z,9.83
2022-11-24T17:51:29.308Z,9.80
2022-11-24T17:54:05.976Z,9.77
2022-11-24T17:56:48.245Z,9.77
2022-11-24T17:59:16.711Z,9.76
2022-11-24T18:01:44.935Z,9.74
2022-11-24T18:04:14.507Z,9.72
2022-11-24T18:06:42.739Z,9.69
2022-11-24T18:09:10.877Z,9.67
2022-11-24T18:11:39.140Z,9.62
2022-11-24T18:14:07.050Z,9.58
2022-11-24T18:16:35.665Z,9.54
2022-11-24T18:19:09.959Z,9.49
2022-11-24T18:21:41.125Z,9.48
2022-11-24T18:24:09.790Z,9.46
2022-11-24T18:26:37.990Z,9.45
2022-11-24T18:29:06.516Z,9.42
2022-11-24T18:31:35.798Z,9.40
2022-11-24T18:34:05.136Z,9.35
2022-11-24T18:36:33.523Z,9.35
2022-11-24T18:39:03.223Z,9.29
2022-11-24T18:41:31.736Z,9.24
2022-11-24T18:44:02.139Z,9.19
2022-11-24T18:46:30.249Z,9.18
2022-11-24T18:48:58.419Z,9.15
2022-11-24T18:51:27.146Z,9.12
2022-11-24T18:53:57.782Z,9.11
2022-11-24T18:56:27.598Z,9.09
2022-11-24T18:58:57.117Z,9.10
2022-11-24T19:01:26.519Z,9.08
2022-11-24T19:03:56.372Z,9.09
2022-11-24T19:06:28.489Z,9.10
2022-11-24T19:08:57.079Z,9.09
2022-11-24T19:11:28.111Z,9.08
2022-11-24T19:13:56.912Z,9.09
2022-11-24T19:16:25.557Z,9.09
2022-11-24T19:18:57.124Z,9.08
2022-11-24T19:21:25.067Z,9.09
2022-11-24T19:23:53.808Z,9.09
2022-11-24T19:26:21.905Z,9.10
2022-11-24T19:28:51.524Z,9.09
2022-11-24T19:31:20.203Z,9.08
2022-11-24T19:33:48.516Z,9.07
2022-11-24T19:36:18.877Z,9.06
2022-11-24T19:38:50.864Z,9.03
2022-11-24T19:41:20.368Z,9.00
2022-11-24T19:43:49.077Z,8.99
2022-11-24T19:46:20.137Z,8.99
2022-11-24T19:48:50.877Z,8.98
2022-11-24T19:51:21.307Z,8.96
2022-11-24T19:53:49.551Z,8.93
2022-11-24T19:56:18.733Z,8.88
2022-11-24T19:58:47.951Z,8.87
2022-11-24T20:01:18.965Z,8.85
2022-11-24T20:03:49.305Z,8.83
2022-11-24T20:06:17.406Z,8.83
2022-11-24T20:08:45.598Z,8.81
2022-11-24T20:11:14.861Z,8.81
2022-11-24T20:13:44.763Z,8.81
2022-11-24T20:16:14.788Z,8.80
2022-11-24T20:18:46.058Z,8.79
2022-11-24T20:21:15.523Z,8.78
2022-11-24T20:23:44.066Z,8.80
2022-11-24T20:26:13.669Z,8.80
2022-11-24T20:28:42.426Z,8.80
2022-11-24T20:31:12.147Z,8.78
2022-11-24T20:33:40.658Z,8.75
2022-11-24T20:36:11.521Z,8.72
2022-11-24T20:38:40.446Z,8.70
2022-11-24T20:41:10.351Z,8.61
2022-11-24T20:43:39.421Z,8.52
2022-11-24T20:46:09.528Z,8.45
2022-11-24T20:48:38.429Z,8.39
2022-11-24T20:51:07.929Z,8.27
2022-11-24T20:53:39.055Z,8.22
2022-11-24T20:56:09.110Z,8.17
2022-11-24T20:58:38.621Z,8.06
2022-11-24T21:01:08.045Z,8.04
2022-11-24T21:03:42.583Z,7.97
2022-11-24T21:06:12.120Z,7.96
2022-11-24T21:08:43.109Z,7.86
2022-11-24T21:11:12.654Z,7.87
2022-11-24T21:13:42.441Z,7.82
2022-11-24T21:16:14.404Z,7.81
2022-11-24T21:18:42.797Z,7.81
2022-11-24T21:21:10.842Z,7.78
2022-11-24T21:23:40.769Z,7.78
2022-11-24T21:26:16.301Z,7.75
2022-11-24T21:28:46.993Z,7.73
2022-11-24T21:31:17.334Z,7.75
2022-11-24T21:33:46.956Z,7.72
2022-11-24T21:36:16.173Z,7.67
2022-11-24T21:38:50.923Z,7.61
2022-11-24T21:41:19.328Z,7.58
2022-11-24T21:43:47.877Z,7.49
2022-11-24T21:46:16.591Z,7.48
2022-11-24T21:48:45.476Z,7.43
2022-11-24T21:51:16.001Z,7.40
2022-11-24T21:53:46.925Z,7.40
2022-11-24T21:56:16.922Z,7.42
2022-11-24T21:58:48.166Z,7.45
2022-11-24T22:01:17.903Z,7.45
2022-11-24T22:03:46.705Z,7.45
2022-11-24T22:06:15.359Z,7.45
2022-11-24T22:08:43.952Z,7.45
2022-11-24T22:11:14.720Z,7.44
2022-11-24T22:13:44.260Z,7.46
2022-11-24T22:16:13.831Z,7.48
2022-11-24T22:18:43.514Z,7.51
2022-11-24T22:21:13.354Z,7.52
2022-11-24T22:23:41.638Z,7.54
2022-11-24T22:26:14.784Z,7.56
2022-11-24T22:28:43.877Z,7.57
2022-11-24T22:31:13.492Z,7.59
2022-11-24T22:33:43.762Z,7.61
2022-11-24T22:36:12.503Z,7.63
2022-11-24T22:38:41.635Z,7.64
2022-11-24T22:41:11.433Z,7.66
2022-11-24T22:43:43.012Z,7.66
2022-11-24T22:46:12.850Z,7.66
2022-11-24T22:48:41.555Z,7.65
2022-11-24T22:51:11.295Z,7.65
2022-11-24T22:53:39.762Z,7.63
2022-11-24T22:56:10.395Z,7.63
2022-11-24T22:58:52.189Z,7.62
2022-11-24T23:01:21.622Z,7.62
2022-11-24T23:03:50.305Z,7.61
2022-11-24T23:06:20.258Z,7.60
2022-11-24T23:08:50.703Z,7.57
2022-11-24T23:11:24.674Z,7.52
2022-11-24T23:14:00.866Z,7.35
2022-11-24T23:16:29.447Z,7.22
2022-11-24T23:18:58.280Z,7.19
2022-11-24T23:21:27.727Z,7.13
2022-11-24T23:23:56.484Z,7.12
2022-11-24T23:26:25.865Z,7.05
2022-11-24T23:28:54.063Z,6.93
2022-11-24T23:31:27.334Z,6.84
2022-11-24T23:33:55.656Z,6.84
2022-11-24T23:36:23.713Z,6.79
2022-11-24T23:38:52.214Z,6.83
2022-11-24T23:41:21.888Z,6.85
2022-11-24T23:43:50.704Z,6.88
2022-11-24T23:46:20.811Z,6.89
2022-11-24T23:48:51.701Z,6.87
2022-11-24T23:51:21.136Z,6.84
2022-11-24T23:53:50.448Z,6.85
2022-11-24T23:56:21.177Z,6.84
2022-11-24T23:58:49.744Z,6.83
